Terminal Aerodrome Forecast
Issued by NWS Memphis, TN

Home | Current Version | Previous Version | Text Only | Print | Product List | Glossary On
Versions: 1 2 3 4 5 6 7 8 9 10 11 12 13 14 15 16 17 18 19 20 21 22 23 24 25 26 27 28
000
FTUS44 KMEG 031459 AAA
TAFMEM
TAF AMD
KMEM 031459Z 0315/0412 24008KT 6SM SHRA VCTS SCT015 OVC050CB
      TEMPO 0315/0319 VRB10G20KT 2SM +TSRA OVC015CB
     FM032000 24010G16KT 6SM -TSRA OVC050CB
     FM040000 24009KT P6SM VCTS OVC050CB
      TEMPO 0401/0405 5SM TSRA OVC035CB=

USA.gov is the U.S. government's official web portal to all federal, state and local government web resources and services.